BIENTÔT MET'MAP
version 2.0 !

Prévue avant fin octobre,
la nouvelle version sera
plus belle, plus complète
et hébergée sur un serveur
3 fois plus puissant...
et toujours gratuite !


Pas compatible ?
Essayez la version Mobile !

SE CONNECTER : | S'inscrire | Disclaimer | Découvrir Orbifly |
Code OACI :

TAF - LGLR Larisa - 01 Jun 2020 22:02 UTC - Data Source NOAA   


- Altitude de l'aérodrome : 241 ft
- Code IATA : LRA
- Pas de NOTAMs connus.


LGLR - Larisa

Dernier METAR connu : 2015/08/11 07:50 LGLR 110750Z 21004KT 9999 FEW035 28/15 Q1012 BLU
TAF TAF LGLR
Valide du 01 à 18h jusqu'au 02 à 03h UTC


011700Z 0118/0203 VRB03KT 9999 SCT025 SCT080
PROB30
TEMPO 0118/0119 4000 SHRA FEW018CB SCT025 BKN080

Source NOAA


MET'MAP, la Météo Aéronautique d'un coup d'oeil ! - Copyright ORBIFLY Décembre 2007

Développement & Programmation : Alexandra Zaïnal
Co-Développement : Marc-Olivier Méhu
Soutien technique & logistique : Manuel Goepfert
Conception & Financement : Baudouin d'Aumeries